createdAt,value
2023-01-07T00:01:19.773Z,4.53
2023-01-07T00:03:46.137Z,3.70
2023-01-07T00:06:13.321Z,3.50
2023-01-07T00:08:40.286Z,3.95
2023-01-07T00:11:07.241Z,3.95
2023-01-07T00:13:33.301Z,3.60
2023-01-07T00:15:59.757Z,3.45
2023-01-07T00:18:25.700Z,3.85
2023-01-07T00:20:51.424Z,3.53
2023-01-07T00:23:17.143Z,3.47
2023-01-07T00:25:42.917Z,3.30
2023-01-07T00:28:08.685Z,3.30
2023-01-07T00:30:34.420Z,3.85
2023-01-07T00:33:05.396Z,2.88
2023-01-07T00:35:31.789Z,3.35
2023-01-07T00:37:57.546Z,3.00
2023-01-07T00:40:23.356Z,3.00
2023-01-07T00:42:57.407Z,3.17
2023-01-07T00:45:24.386Z,2.78
2023-01-07T00:47:53.657Z,3.08
2023-01-07T00:50:20.095Z,2.75
2023-01-07T00:52:45.808Z,3.25
2023-01-07T00:55:14.224Z,3.20
2023-01-07T00:57:40.534Z,2.63
2023-01-07T01:00:06.911Z,2.83
2023-01-07T01:02:32.810Z,3.17
2023-01-07T01:04:58.539Z,2.63
2023-01-07T01:07:24.274Z,2.88
2023-01-07T01:09:50.154Z,2.55
2023-01-07T01:12:15.887Z,3.30
2023-01-07T01:14:41.598Z,2.42
2023-01-07T01:17:07.315Z,3.30
2023-01-07T01:19:33.127Z,3.65
2023-01-07T01:21:58.863Z,3.13
2023-01-07T01:24:24.585Z,2.85
2023-01-07T01:26:50.334Z,2.85
2023-01-07T01:29:16.061Z,2.95
2023-01-07T01:31:41.854Z,2.67
2023-01-07T01:34:07.655Z,3.15
2023-01-07T01:36:33.438Z,2.90
2023-01-07T01:38:59.208Z,3.40
2023-01-07T01:41:24.987Z,3.60
2023-01-07T01:43:50.941Z,2.95
2023-01-07T01:46:31.272Z,3.85
2023-01-07T01:49:19.689Z,2.70
2023-01-07T01:51:48.845Z,3.17
2023-01-07T01:54:15.687Z,3.47
2023-01-07T01:56:42.631Z,3.80
2023-01-07T01:59:10.896Z,3.67
2023-01-07T02:01:37.418Z,4.53
2023-01-07T02:04:08.855Z,3.65
2023-01-07T02:06:36.845Z,3.60
2023-01-07T02:09:02.976Z,3.80
2023-01-07T02:11:31.701Z,4.00
2023-01-07T02:14:10.291Z,4.40
2023-01-07T02:16:51.021Z,3.30
2023-01-07T02:19:32.177Z,4.57
2023-01-07T02:22:03.930Z,3.97
2023-01-07T02:24:52.960Z,4.47
2023-01-07T02:27:21.483Z,5.00
2023-01-07T02:30:05.750Z,4.82
2023-01-07T02:32:50.124Z,4.53
2023-01-07T02:35:15.871Z,4.53
2023-01-07T02:37:50.707Z,4.97
2023-01-07T02:40:25.228Z,4.80
2023-01-07T02:43:09.511Z,4.93
2023-01-07T02:45:39.002Z,5.45
2023-01-07T02:48:06.914Z,5.97
2023-01-07T02:50:32.686Z,5.88
2023-01-07T02:52:58.436Z,5.38
2023-01-07T02:55:45.663Z,5.20
2023-01-07T02:58:21.900Z,6.03
2023-01-07T03:00:56.855Z,5.70
2023-01-07T03:03:38.821Z,5.45
2023-01-07T03:06:13.380Z,6.28
2023-01-07T03:09:02.966Z,6.70
2023-01-07T03:11:41.443Z,5.78
2023-01-07T03:14:16.226Z,5.68
2023-01-07T03:16:43.791Z,4.93
2023-01-07T03:19:12.275Z,5.65
2023-01-07T03:21:38.330Z,5.10
2023-01-07T03:24:05.380Z,5.10
2023-01-07T03:26:33.209Z,6.30
2023-01-07T03:29:00.205Z,5.70
2023-01-07T03:31:26.520Z,5.22
2023-01-07T03:33:52.251Z,5.65
2023-01-07T03:36:20.170Z,6.97
2023-01-07T03:38:46.619Z,6.03
2023-01-07T03:41:32.352Z,6.63
2023-01-07T03:43:58.250Z,6.03
2023-01-07T03:46:24.017Z,6.03
2023-01-07T03:48:49.759Z,5.95
2023-01-07T03:51:15.480Z,6.80
2023-01-07T03:53:41.338Z,7.57
2023-01-07T03:56:07.117Z,7.68
2023-01-07T03:58:32.819Z,7.60
2023-01-07T04:00:58.761Z,7.75
2023-01-07T04:03:24.610Z,7.22
2023-01-07T04:05:50.325Z,7.53
2023-01-07T04:08:16.047Z,7.22
2023-01-07T04:10:41.824Z,6.63
2023-01-07T04:13:07.565Z,7.05
2023-01-07T04:15:33.283Z,6.88
2023-01-07T04:17:59.014Z,7.88
2023-01-07T04:20:24.779Z,6.88
2023-01-07T04:22:50.550Z,7.22
2023-01-07T04:25:16.311Z,6.80
2023-01-07T04:27:42.112Z,6.93
2023-01-07T04:30:08.095Z,6.97
2023-01-07T04:32:34.131Z,8.00
2023-01-07T04:34:59.881Z,7.10
2023-01-07T04:37:25.661Z,7.85
2023-01-07T04:39:51.397Z,7.25
2023-01-07T04:42:17.172Z,7.32
2023-01-07T04:44:43.959Z,7.95
2023-01-07T04:47:09.672Z,6.65
2023-01-07T04:49:35.431Z,8.80
2023-01-07T04:52:01.158Z,7.70
2023-01-07T04:54:27.807Z,7.28
2023-01-07T04:56:53.646Z,8.23
2023-01-07T04:59:19.394Z,7.38
2023-01-07T05:01:45.242Z,7.00
2023-01-07T05:04:11.115Z,7.90
2023-01-07T05:06:36.922Z,7.20
2023-01-07T05:09:02.825Z,7.60
2023-01-07T05:11:28.561Z,7.20
2023-01-07T05:13:54.299Z,7.55
2023-01-07T05:16:20.059Z,6.93
2023-01-07T05:18:45.865Z,8.00
2023-01-07T05:21:11.950Z,7.05
2023-01-07T05:23:37.704Z,6.35
2023-01-07T05:26:03.628Z,7.05
2023-01-07T05:28:29.347Z,6.75
2023-01-07T05:30:55.066Z,7.07
2023-01-07T05:33:20.821Z,7.35
2023-01-07T05:35:47.156Z,7.85
2023-01-07T05:38:12.881Z,7.10
2023-01-07T05:40:40.264Z,6.75
2023-01-07T05:43:06.047Z,7.60
2023-01-07T05:45:31.751Z,8.57
2023-01-07T05:47:57.554Z,7.53
2023-01-07T05:50:23.361Z,7.90
2023-01-07T05:52:50.081Z,6.75
2023-01-07T05:55:15.935Z,7.00
2023-01-07T05:57:41.646Z,6.85
2023-01-07T06:00:09.624Z,5.97
2023-01-07T06:02:35.885Z,6.63
2023-01-07T06:05:01.895Z,6.03
2023-01-07T06:07:27.652Z,5.47
2023-01-07T06:09:53.392Z,6.15
2023-01-07T06:12:19.156Z,5.90
2023-01-07T06:14:44.878Z,6.18
2023-01-07T06:17:10.583Z,6.78
2023-01-07T06:19:36.379Z,6.50
2023-01-07T06:22:02.141Z,6.45
2023-01-07T06:24:27.920Z,6.38
2023-01-07T06:26:53.758Z,6.25
2023-01-07T06:29:19.498Z,6.57
2023-01-07T06:31:45.234Z,6.85
2023-01-07T06:34:10.939Z,6.13
2023-01-07T06:36:36.738Z,6.40
2023-01-07T06:39:02.586Z,6.07
2023-01-07T06:41:28.324Z,6.60
2023-01-07T06:43:54.050Z,6.03
2023-01-07T06:46:20.049Z,5.90
2023-01-07T06:48:45.854Z,4.88
2023-01-07T06:51:11.611Z,5.97
2023-01-07T06:53:37.467Z,6.05
2023-01-07T06:56:03.351Z,5.22
2023-01-07T06:58:29.202Z,5.63
2023-01-07T07:00:55.093Z,6.55
2023-01-07T07:03:20.850Z,5.40
2023-01-07T07:05:46.570Z,6.45
2023-01-07T07:08:12.423Z,5.40
2023-01-07T07:10:38.225Z,6.05
2023-01-07T07:13:03.925Z,6.35
2023-01-07T07:15:29.694Z,5.22
2023-01-07T07:17:55.417Z,5.22
2023-01-07T07:20:21.170Z,5.47
2023-01-07T07:22:47.476Z,6.10
2023-01-07T07:25:13.709Z,5.70
2023-01-07T07:27:39.458Z,4.88
2023-01-07T07:30:05.692Z,5.10
2023-01-07T07:32:31.595Z,6.78
2023-01-07T07:34:57.459Z,5.20
2023-01-07T07:37:23.324Z,4.70
2023-01-07T07:39:49.179Z,4.65
2023-01-07T07:42:14.909Z,4.45
2023-01-07T07:44:40.699Z,5.20
2023-01-07T07:47:06.556Z,4.65
2023-01-07T07:49:32.389Z,4.70
2023-01-07T07:51:58.184Z,4.13
2023-01-07T07:54:24.158Z,4.80
2023-01-07T07:56:49.977Z,4.13
2023-01-07T07:59:15.781Z,4.95
2023-01-07T08:01:41.623Z,3.70
2023-01-07T08:04:07.611Z,3.95
2023-01-07T08:06:33.710Z,3.83
2023-01-07T08:08:59.677Z,4.50
2023-01-07T08:11:25.439Z,3.85
2023-01-07T08:13:51.183Z,3.30
2023-01-07T08:16:17.019Z,3.90
2023-01-07T08:18:42.844Z,3.55
2023-01-07T08:21:08.605Z,4.05
2023-01-07T08:23:34.454Z,3.53
2023-01-07T08:26:02.179Z,3.67
2023-01-07T08:28:28.709Z,3.53
2023-01-07T08:30:54.672Z,3.65
2023-01-07T08:33:20.482Z,3.60
2023-01-07T08:35:46.201Z,3.25
2023-01-07T08:38:16.882Z,3.40
2023-01-07T08:40:43.698Z,3.25
2023-01-07T08:43:09.623Z,3.20
2023-01-07T08:45:35.662Z,3.05
2023-01-07T08:48:01.464Z,3.15
2023-01-07T08:50:28.518Z,3.42
2023-01-07T08:52:54.572Z,2.88
2023-01-07T08:55:20.897Z,3.30
2023-01-07T08:57:49.582Z,2.85
2023-01-07T09:00:16.602Z,3.28
2023-01-07T09:02:43.064Z,3.20
2023-01-07T09:05:09.042Z,3.38
2023-01-07T09:07:34.900Z,2.80
2023-01-07T09:10:00.738Z,3.15
2023-01-07T09:12:26.689Z,2.90
2023-01-07T09:14:53.005Z,2.83
2023-01-07T09:17:18.862Z,2.75
2023-01-07T09:19:44.625Z,2.83
2023-01-07T09:22:10.818Z,2.40
2023-01-07T09:24:36.734Z,2.88
2023-01-07T09:27:02.613Z,2.67
2023-01-07T09:29:30.855Z,2.95
2023-01-07T09:31:56.769Z,3.50
2023-01-07T09:34:22.659Z,3.70
2023-01-07T09:36:48.526Z,2.60
2023-01-07T09:39:14.696Z,2.85
2023-01-07T09:41:43.555Z,2.65
2023-01-07T09:44:29.750Z,2.20
2023-01-07T09:46:57.083Z,2.42
2023-01-07T09:49:25.309Z,2.47
2023-01-07T09:51:54.860Z,3.47
2023-01-07T09:54:28.596Z,2.20
2023-01-07T09:56:54.462Z,2.22
2023-01-07T09:59:20.332Z,2.30
2023-01-07T10:01:49.502Z,2.00
2023-01-07T10:04:30.331Z,2.25
2023-01-07T10:09:39.901Z,1.90
2023-01-07T10:12:11.952Z,1.75
2023-01-07T10:14:44.371Z,2.00
2023-01-07T10:17:19.163Z,2.50
2023-01-07T10:19:51.657Z,2.90
2023-01-07T10:22:28.606Z,2.45
2023-01-07T10:24:57.170Z,2.17
2023-01-07T10:27:28.255Z,2.45
2023-01-07T10:29:55.813Z,2.10
2023-01-07T10:32:22.280Z,2.40
2023-01-07T10:34:49.391Z,2.47
2023-01-07T10:37:29.581Z,1.63
2023-01-07T10:40:18.392Z,1.40
2023-01-07T10:42:50.172Z,2.22
2023-01-07T10:45:15.946Z,1.80
2023-01-07T10:47:48.765Z,2.40
2023-01-07T10:50:33.552Z,2.42
2023-01-07T10:53:04.970Z,2.05
2023-01-07T10:55:37.258Z,1.70
2023-01-07T10:58:03.323Z,1.77
2023-01-07T11:00:29.147Z,1.77
2023-01-07T11:02:57.318Z,1.60
2023-01-07T11:05:25.349Z,1.30
2023-01-07T11:07:53.395Z,1.95
2023-01-07T11:10:22.132Z,1.70
2023-01-07T11:12:50.519Z,1.70
2023-01-07T11:15:27.602Z,1.58
2023-01-07T11:17:54.934Z,1.40
2023-01-07T11:20:47.332Z,2.40
2023-01-07T11:23:36.538Z,1.67
2023-01-07T11:26:08.109Z,3.00
2023-01-07T11:28:34.047Z,2.33
2023-01-07T11:31:00.749Z,2.45
2023-01-07T11:34:01.882Z,1.70
2023-01-07T11:36:48.420Z,1.23
2023-01-07T11:39:28.942Z,1.10
2023-01-07T11:41:56.324Z,1.02
2023-01-07T11:44:22.616Z,1.58
2023-01-07T11:46:48.719Z,2.22
2023-01-07T11:49:41.047Z,1.45
2023-01-07T11:52:17.081Z,1.60
2023-01-07T11:54:49.007Z,1.33
2023-01-07T11:57:20.728Z,1.23
2023-01-07T11:59:46.846Z,1.25
2023-01-07T12:02:26.707Z,1.27
2023-01-07T12:05:12.571Z,1.60
2023-01-07T12:07:43.867Z,1.73
2023-01-07T12:10:29.988Z,1.70
2023-01-07T12:12:56.854Z,1.38
2023-01-07T12:15:27.947Z,1.35
2023-01-07T12:18:20.653Z,1.30
2023-01-07T12:20:49.723Z,1.30
2023-01-07T12:23:25.089Z,1.50
2023-01-07T12:26:12.441Z,1.20
2023-01-07T12:28:57.015Z,1.30
2023-01-07T12:31:33.935Z,1.27
2023-01-07T12:33:59.990Z,1.15
2023-01-07T12:36:35.394Z,1.30
2023-01-07T12:39:03.186Z,1.35
2023-01-07T12:41:35.871Z,1.05
2023-01-07T12:44:04.763Z,1.02
2023-01-07T12:46:39.766Z,1.48
2023-01-07T12:49:20.374Z,1.60
2023-01-07T12:51:57.075Z,1.52
2023-01-07T12:54:43.189Z,1.50
2023-01-07T12:57:24.214Z,1.30
2023-01-07T13:00:07.849Z,1.77
2023-01-07T13:02:39.838Z,1.33
2023-01-07T13:05:05.878Z,1.70
2023-01-07T13:07:58.396Z,1.77
2023-01-07T13:10:26.363Z,0.82
2023-01-07T13:12:55.156Z,1.25
2023-01-07T13:15:26.705Z,1.52
2023-01-07T13:17:54.433Z,1.67
2023-01-07T13:20:26.549Z,1.58
2023-01-07T13:22:53.246Z,1.38
2023-01-07T13:25:33.769Z,1.70
2023-01-07T13:28:18.672Z,2.45
2023-01-07T13:30:44.760Z,1.45
2023-01-07T13:33:26.101Z,2.15
2023-01-07T13:35:52.075Z,1.38
2023-01-07T13:38:40.098Z,1.52
2023-01-07T13:41:23.244Z,1.10
2023-01-07T13:43:58.269Z,1.30
2023-01-07T13:46:29.592Z,1.58
2023-01-07T13:48:56.265Z,1.23
2023-01-07T13:51:33.031Z,1.75
2023-01-07T13:53:59.128Z,1.65
2023-01-07T13:56:25.363Z,1.58
2023-01-07T13:58:55.057Z,1.40
2023-01-07T14:01:27.522Z,2.47
2023-01-07T14:03:54.233Z,1.80
2023-01-07T14:06:20.116Z,1.58
2023-01-07T14:09:12.851Z,1.70
2023-01-07T14:12:02.246Z,2.38
2023-01-07T14:14:51.535Z,1.40
2023-01-07T14:17:26.564Z,1.27
2023-01-07T14:20:05.380Z,2.03
2023-01-07T14:22:50.189Z,2.90
2023-01-07T14:25:21.820Z,2.13
2023-01-07T14:27:50.982Z,1.80
2023-01-07T14:30:24.743Z,1.38
2023-01-07T14:32:57.903Z,1.60
2023-01-07T14:35:38.068Z,2.97
2023-01-07T14:38:32.158Z,1.30
2023-01-07T14:41:01.278Z,2.03
2023-01-07T14:43:43.087Z,1.85
2023-01-07T14:46:24.378Z,2.60
2023-01-07T14:49:02.667Z,3.28
2023-01-07T14:51:56.194Z,2.50
2023-01-07T14:54:22.565Z,2.05
2023-01-07T14:56:54.332Z,1.95
2023-01-07T14:59:39.637Z,1.88
2023-01-07T15:02:28.565Z,1.70
2023-01-07T15:05:07.864Z,1.55
2023-01-07T15:07:45.837Z,1.75
2023-01-07T15:10:36.276Z,1.55
2023-01-07T15:13:22.226Z,1.92
2023-01-07T15:16:02.154Z,2.78
2023-01-07T15:18:32.001Z,2.03
2023-01-07T15:21:08.742Z,2.30
2023-01-07T15:23:40.842Z,2.83
2023-01-07T15:26:12.704Z,2.35
2023-01-07T15:28:41.821Z,1.58
2023-01-07T15:31:08.081Z,2.38
2023-01-07T15:33:44.117Z,1.70
2023-01-07T15:36:15.610Z,1.88
2023-01-07T15:38:50.770Z,1.55
2023-01-07T15:41:25.095Z,1.85
2023-01-07T15:43:51.778Z,1.50
2023-01-07T15:46:17.679Z,1.13
2023-01-07T15:48:43.475Z,1.40
2023-01-07T15:51:15.113Z,2.42
2023-01-07T15:53:46.836Z,3.13
2023-01-07T15:56:14.657Z,2.30
2023-01-07T15:58:44.769Z,2.97
2023-01-07T16:01:21.443Z,1.63
2023-01-07T16:03:52.103Z,1.95
2023-01-07T16:06:25.065Z,1.75
2023-01-07T16:09:12.710Z,2.22
2023-01-07T16:11:38.585Z,2.70
2023-01-07T16:14:13.909Z,1.88
2023-01-07T16:16:39.876Z,1.70
2023-01-07T16:19:05.832Z,2.38
2023-01-07T16:21:36.441Z,1.65
2023-01-07T16:24:02.413Z,1.83
2023-01-07T16:26:36.729Z,1.83
2023-01-07T16:29:07.343Z,3.13
2023-01-07T16:31:33.757Z,1.85
2023-01-07T16:33:59.973Z,2.17
2023-01-07T16:36:30.845Z,2.00
2023-01-07T16:41:28.969Z,2.35
2023-01-07T16:43:56.270Z,1.85
2023-01-07T16:46:22.818Z,2.92
2023-01-07T16:49:08.851Z,2.00
2023-01-07T16:51:36.831Z,2.50
2023-01-07T16:54:21.744Z,1.13
2023-01-07T16:56:48.529Z,1.52
2023-01-07T16:59:14.954Z,0.90
2023-01-07T17:01:41.585Z,1.60
2023-01-07T17:04:13.169Z,1.63
2023-01-07T17:06:54.417Z,1.65
2023-01-07T17:09:25.502Z,1.90
2023-01-07T17:11:52.443Z,1.92
2023-01-07T17:14:34.590Z,1.63
2023-01-07T17:17:04.627Z,1.77
2023-01-07T17:19:36.691Z,1.60
2023-01-07T17:22:03.432Z,2.45
2023-01-07T17:24:29.498Z,2.10
2023-01-07T17:26:56.676Z,3.17
2023-01-07T17:29:24.638Z,2.03
2023-01-07T17:31:50.622Z,1.90
2023-01-07T17:34:17.458Z,2.00
2023-01-07T17:36:43.255Z,1.20
2023-01-07T17:39:09.150Z,1.48
2023-01-07T17:41:55.362Z,1.52
2023-01-07T17:44:21.704Z,1.52
2023-01-07T17:46:47.594Z,1.42
2023-01-07T17:49:14.011Z,3.08
2023-01-07T17:51:41.544Z,1.42
2023-01-07T17:54:17.025Z,1.85
2023-01-07T17:56:42.937Z,2.03
2023-01-07T17:59:13.194Z,2.22
2023-01-07T18:01:39.172Z,2.15
2023-01-07T18:04:04.983Z,1.95
2023-01-07T18:06:46.573Z,1.73
2023-01-07T18:09:13.178Z,2.17
2023-01-07T18:11:58.719Z,2.20
2023-01-07T18:14:25.067Z,1.67
2023-01-07T18:16:52.164Z,1.85
2023-01-07T18:19:18.608Z,2.60
2023-01-07T18:21:44.464Z,2.25
2023-01-07T18:24:14.620Z,2.60
2023-01-07T18:26:40.447Z,2.60
2023-01-07T18:29:06.302Z,3.55
2023-01-07T18:31:32.104Z,2.92
2023-01-07T18:33:58.228Z,4.03
2023-01-07T18:36:24.136Z,2.80
2023-01-07T18:38:50.452Z,2.35
2023-01-07T18:41:16.347Z,2.58
2023-01-07T18:43:42.182Z,2.65
2023-01-07T18:46:08.687Z,2.85
2023-01-07T18:48:35.695Z,3.60
2023-01-07T18:51:01.493Z,2.92
2023-01-07T18:53:27.523Z,2.30
2023-01-07T18:55:57.577Z,2.20
2023-01-07T18:58:23.900Z,2.50
2023-01-07T19:00:49.951Z,2.42
2023-01-07T19:03:16.218Z,2.40
2023-01-07T19:05:43.322Z,2.55
2023-01-07T19:08:21.732Z,2.15
2023-01-07T19:10:49.552Z,2.20
2023-01-07T19:13:15.499Z,2.28
2023-01-07T19:15:41.729Z,2.45
2023-01-07T19:18:07.522Z,2.38
2023-01-07T19:20:33.760Z,2.47
2023-01-07T19:23:00.592Z,2.20
2023-01-07T19:25:30.110Z,3.72
2023-01-07T19:27:56.630Z,2.50
2023-01-07T19:30:22.621Z,2.60
2023-01-07T19:32:48.564Z,1.90
2023-01-07T19:35:14.557Z,1.83
2023-01-07T19:37:40.377Z,1.83
2023-01-07T19:40:06.522Z,2.33
2023-01-07T19:42:32.665Z,2.13
2023-01-07T19:45:01.304Z,2.28
2023-01-07T19:47:27.091Z,1.98
2023-01-07T19:49:52.842Z,2.15
2023-01-07T19:52:19.181Z,2.65
2023-01-07T19:54:45.031Z,1.88
2023-01-07T19:57:10.845Z,2.25
2023-01-07T19:59:36.586Z,1.77
2023-01-07T20:02:03.026Z,2.20
2023-01-07T20:04:29.105Z,2.72
2023-01-07T20:07:00.101Z,2.35
2023-01-07T20:09:26.405Z,1.88
2023-01-07T20:11:52.297Z,2.53
2023-01-07T20:14:18.079Z,2.63
2023-01-07T20:16:44.019Z,2.05
2023-01-07T20:19:10.760Z,1.77
2023-01-07T20:21:36.519Z,2.47
2023-01-07T20:24:03.411Z,2.10
2023-01-07T20:26:30.597Z,2.97
2023-01-07T20:28:57.587Z,2.83
2023-01-07T20:31:24.617Z,7.32
2023-01-07T20:33:50.871Z,3.00
2023-01-07T20:36:17.983Z,2.17
2023-01-07T20:38:50.328Z,2.03
2023-01-07T20:41:17.238Z,2.60
2023-01-07T20:43:43.049Z,2.75
2023-01-07T20:46:09.490Z,3.85
2023-01-07T20:48:35.789Z,2.50
2023-01-07T20:51:08.352Z,2.40
2023-01-07T20:53:35.667Z,2.67
2023-01-07T20:56:02.012Z,2.20
2023-01-07T20:58:31.759Z,2.95
2023-01-07T21:00:57.843Z,2.33
2023-01-07T21:03:23.756Z,2.67
2023-01-07T21:05:54.080Z,2.35
2023-01-07T21:08:23.291Z,2.75
2023-01-07T21:10:49.177Z,2.20
2023-01-07T21:13:14.935Z,2.85
2023-01-07T21:15:40.685Z,2.53
2023-01-07T21:18:06.657Z,2.50
2023-01-07T21:20:32.423Z,3.10
2023-01-07T21:22:59.348Z,2.60
2023-01-07T21:25:25.197Z,2.40
2023-01-07T21:27:51.075Z,2.30
2023-01-07T21:30:18.202Z,2.60
2023-01-07T21:32:43.987Z,2.85
2023-01-07T21:35:10.593Z,2.47
2023-01-07T21:37:39.541Z,2.28
2023-01-07T21:40:06.041Z,2.30
2023-01-07T21:42:32.259Z,4.18
2023-01-07T21:44:58.302Z,2.38
2023-01-07T21:47:24.137Z,1.90
2023-01-07T21:49:51.000Z,2.42
2023-01-07T21:52:17.479Z,2.63
2023-01-07T21:54:43.332Z,2.20
2023-01-07T21:57:09.259Z,2.13
2023-01-07T21:59:35.303Z,2.20
2023-01-07T22:02:01.286Z,2.38
2023-01-07T22:04:27.280Z,2.67
2023-01-07T22:07:12.978Z,2.50
2023-01-07T22:09:38.725Z,2.97
2023-01-07T22:12:04.985Z,2.72
2023-01-07T22:14:30.764Z,2.53
2023-01-07T22:16:56.584Z,2.65
2023-01-07T22:19:25.231Z,2.70
2023-01-07T22:21:52.211Z,3.00
2023-01-07T22:24:18.342Z,3.40
2023-01-07T22:26:44.108Z,2.70
2023-01-07T22:29:10.373Z,2.75
2023-01-07T22:31:36.789Z,2.65
2023-01-07T22:34:03.818Z,2.75
2023-01-07T22:36:29.686Z,2.70
2023-01-07T22:38:57.016Z,3.00
2023-01-07T22:41:23.177Z,3.03
2023-01-07T22:43:48.990Z,3.22
2023-01-07T22:46:22.936Z,2.78
2023-01-07T22:48:48.716Z,2.70
2023-01-07T22:51:19.261Z,2.70
2023-01-07T22:53:45.757Z,2.97
2023-01-07T22:56:12.222Z,3.17
2023-01-07T22:58:38.091Z,2.83
2023-01-07T23:01:03.966Z,3.17
2023-01-07T23:03:29.921Z,2.85
2023-01-07T23:05:55.766Z,2.70
2023-01-07T23:08:21.509Z,2.38
2023-01-07T23:10:47.839Z,3.40
2023-01-07T23:13:14.084Z,3.00
2023-01-07T23:15:40.185Z,2.90
2023-01-07T23:18:07.128Z,2.72
2023-01-07T23:20:40.362Z,2.53
2023-01-07T23:23:06.534Z,2.75
2023-01-07T23:25:32.554Z,2.67
2023-01-07T23:27:58.423Z,2.78
2023-01-07T23:30:24.183Z,2.25
2023-01-07T23:32:50.080Z,2.88
2023-01-07T23:35:16.152Z,2.22
2023-01-07T23:37:41.963Z,2.50
2023-01-07T23:40:08.649Z,2.10
2023-01-07T23:42:34.466Z,2.13
2023-01-07T23:45:00.241Z,2.78
2023-01-07T23:47:25.969Z,2.00
2023-01-07T23:49:51.730Z,2.40
2023-01-07T23:52:17.497Z,2.42
2023-01-07T23:54:43.296Z,2.22
2023-01-07T23:57:09.026Z,2.20
2023-01-07T23:59:35.038Z,2.17
